createdAt,value
2019-02-22T00:01:36.498Z,10.29
2019-02-22T00:04:40.132Z,10.31
2019-02-22T00:07:43.283Z,10.26
2019-02-22T00:10:46.318Z,10.28
2019-02-22T00:13:49.277Z,10.35
2019-02-22T00:16:52.830Z,10.36
2019-02-22T00:19:55.784Z,10.26
2019-02-22T00:22:59.016Z,10.31
2019-02-22T00:26:01.961Z,10.26
2019-02-22T00:29:05.347Z,10.21
2019-02-22T00:32:08.317Z,10.29
2019-02-22T00:35:11.370Z,10.30
2019-02-22T00:38:14.638Z,10.22
2019-02-22T00:41:18.378Z,10.28
2019-02-22T00:44:21.378Z,10.34
2019-02-22T00:47:24.653Z,10.25
2019-02-22T00:50:27.812Z,10.19
2019-02-22T00:53:30.787Z,10.25
2019-02-22T00:56:34.036Z,10.29
2019-02-22T00:59:37.309Z,10.25
2019-02-22T01:02:40.258Z,10.19
2019-02-22T01:05:43.473Z,10.20
2019-02-22T01:08:46.980Z,10.20
2019-02-22T01:11:49.915Z,10.14
2019-02-22T01:14:53.187Z,10.23
2019-02-22T01:17:56.433Z,10.31
2019-02-22T01:20:59.416Z,10.29
2019-02-22T01:24:03.049Z,10.33
2019-02-22T01:27:07.092Z,10.23
2019-02-22T01:30:10.154Z,10.19
2019-02-22T01:33:13.192Z,10.21
2019-02-22T01:36:16.424Z,10.34
2019-02-22T01:39:19.378Z,10.30
2019-02-22T01:42:22.668Z,10.35
2019-02-22T01:45:25.937Z,10.36
2019-02-22T01:48:29.186Z,10.34
2019-02-22T01:51:32.158Z,10.39
2019-02-22T01:54:35.401Z,10.42
2019-02-22T01:57:38.640Z,10.30
2019-02-22T02:00:41.606Z,10.35
2019-02-22T02:03:44.547Z,10.34
2019-02-22T02:06:47.711Z,10.41
2019-02-22T02:09:50.646Z,10.33
2019-02-22T02:12:53.948Z,10.35
2019-02-22T02:15:57.212Z,10.36
2019-02-22T02:19:00.165Z,10.37
2019-02-22T02:22:03.492Z,10.42
2019-02-22T02:25:07.804Z,10.40
2019-02-22T02:28:10.763Z,10.27
2019-02-22T02:31:14.680Z,10.32
2019-02-22T02:34:17.927Z,10.38
2019-02-22T02:37:21.191Z,10.38
2019-02-22T02:40:24.436Z,10.42
2019-02-22T02:43:28.001Z,10.50
2019-02-22T02:46:31.226Z,10.50
2019-02-22T02:49:34.156Z,10.40
2019-02-22T02:52:37.779Z,10.38
2019-02-22T02:55:41.026Z,10.30
2019-02-22T02:58:43.984Z,10.38
2019-02-22T03:01:46.930Z,10.36
2019-02-22T03:04:50.192Z,10.40
2019-02-22T03:07:53.602Z,10.36
2019-02-22T03:10:56.651Z,10.40
2019-02-22T03:13:59.879Z,10.49
2019-02-22T03:17:02.931Z,10.36
2019-02-22T03:20:06.034Z,10.33
2019-02-22T03:23:09.582Z,10.39
2019-02-22T03:26:12.524Z,10.48
2019-02-22T03:29:15.799Z,10.45
2019-02-22T03:32:18.762Z,10.43
2019-02-22T03:35:22.461Z,10.47
2019-02-22T03:38:25.707Z,10.45
2019-02-22T03:41:33.050Z,10.38
2019-02-22T03:44:33.829Z,10.38
2019-02-22T03:47:36.766Z,10.41
2019-02-22T03:50:40.358Z,10.47
2019-02-22T03:53:47.295Z,10.41
2019-02-22T03:56:50.592Z,10.48
2019-02-22T03:59:53.662Z,10.48
2019-02-22T04:02:56.592Z,10.54
2019-02-22T04:05:59.542Z,10.54
2019-02-22T04:09:04.633Z,10.53
2019-02-22T04:12:08.673Z,10.53
2019-02-22T04:15:11.641Z,10.49
2019-02-22T04:18:14.829Z,10.51
2019-02-22T04:21:18.092Z,10.48
2019-02-22T04:24:21.733Z,10.42
2019-02-22T04:27:24.664Z,10.47
2019-02-22T04:30:27.895Z,10.42
2019-02-22T04:33:30.828Z,10.42
2019-02-22T04:36:34.098Z,10.42
2019-02-22T04:39:37.367Z,10.39
2019-02-22T04:42:40.624Z,10.42
2019-02-22T04:45:43.896Z,10.44
2019-02-22T04:48:47.120Z,10.45
2019-02-22T04:51:50.959Z,10.43
2019-02-22T04:54:54.486Z,10.50
2019-02-22T04:57:57.760Z,10.50
2019-02-22T05:01:00.721Z,10.51
2019-02-22T05:04:03.641Z,10.49
2019-02-22T05:07:06.596Z,10.51
2019-02-22T05:10:09.804Z,10.45
2019-02-22T05:13:12.759Z,10.47
2019-02-22T05:16:15.719Z,10.43
2019-02-22T05:19:19.238Z,10.43
2019-02-22T05:22:22.287Z,10.42
2019-02-22T05:25:25.827Z,10.45
2019-02-22T05:28:28.790Z,10.42
2019-02-22T05:31:32.265Z,10.42
2019-02-22T05:34:35.808Z,10.47
2019-02-22T05:37:38.765Z,10.46
2019-02-22T05:40:42.315Z,10.47
2019-02-22T05:43:45.596Z,10.48
2019-02-22T05:46:59.679Z,10.50
2019-02-22T05:49:53.982Z,10.49
2019-02-22T05:52:57.492Z,10.43
2019-02-22T05:56:00.738Z,10.45
2019-02-22T05:59:04.360Z,10.47
2019-02-22T06:02:07.330Z,10.44
2019-02-22T06:05:10.539Z,10.43
2019-02-22T06:08:13.825Z,10.44
2019-02-22T06:11:16.763Z,10.45
2019-02-22T06:14:19.722Z,10.47
2019-02-22T06:17:22.654Z,10.47
2019-02-22T06:20:25.949Z,10.42
2019-02-22T06:23:28.909Z,10.42
2019-02-22T06:26:31.959Z,10.42
2019-02-22T06:29:34.908Z,10.42
2019-02-22T06:32:38.177Z,10.42
2019-02-22T06:35:41.383Z,10.44
2019-02-22T06:38:46.585Z,10.42
2019-02-22T06:41:49.583Z,10.43
2019-02-22T06:44:52.908Z,10.43
2019-02-22T06:47:56.132Z,10.40
2019-02-22T06:50:59.092Z,10.42
2019-02-22T06:54:03.429Z,10.45
2019-02-22T06:57:06.678Z,10.45
2019-02-22T07:00:10.595Z,10.41
2019-02-22T07:03:13.528Z,10.49
2019-02-22T07:06:16.487Z,10.37
2019-02-22T07:09:19.431Z,10.41
2019-02-22T07:12:32.401Z,10.39
2019-02-22T07:15:35.689Z,10.41
2019-02-22T07:18:39.238Z,10.43
2019-02-22T07:21:52.164Z,10.47
2019-02-22T07:24:47.714Z,10.45
2019-02-22T07:27:50.693Z,10.47
2019-02-22T07:30:53.958Z,10.43
2019-02-22T07:33:56.920Z,10.48
2019-02-22T07:37:00.136Z,10.49
2019-02-22T07:40:03.209Z,10.51
2019-02-22T07:43:08.274Z,10.44
2019-02-22T07:46:11.697Z,10.51
2019-02-22T07:49:23.785Z,10.54
2019-02-22T07:52:26.731Z,10.56
2019-02-22T07:55:30.014Z,10.55
2019-02-22T07:58:32.989Z,10.61
2019-02-22T08:01:46.802Z,10.62
2019-02-22T08:04:40.908Z,10.61
2019-02-22T08:07:43.852Z,10.64
2019-02-22T08:10:46.807Z,10.69
2019-02-22T08:13:50.159Z,10.60
2019-02-22T08:16:53.467Z,10.60
2019-02-22T08:19:56.522Z,10.61
2019-02-22T08:22:59.849Z,10.60
2019-02-22T08:26:02.807Z,10.69
2019-02-22T08:29:05.817Z,10.71
2019-02-22T08:32:09.781Z,10.71
2019-02-22T08:35:12.747Z,10.73
2019-02-22T08:38:16.005Z,10.78
2019-02-22T08:41:19.241Z,10.78
2019-02-22T08:44:22.492Z,10.78
2019-02-22T08:47:25.460Z,10.83
2019-02-22T08:50:28.405Z,10.83
2019-02-22T08:53:31.626Z,10.77
2019-02-22T08:56:34.590Z,10.83
2019-02-22T08:59:37.744Z,10.87
2019-02-22T09:02:40.700Z,10.91
2019-02-22T09:05:43.722Z,10.96
2019-02-22T09:08:47.696Z,10.92
2019-02-22T09:11:50.975Z,10.99
2019-02-22T09:14:54.286Z,11.05
2019-02-22T09:17:58.529Z,11.14
2019-02-22T09:21:01.785Z,11.14
2019-02-22T09:24:04.752Z,11.07
2019-02-22T09:27:07.970Z,11.13
2019-02-22T09:30:11.240Z,11.22
2019-02-22T09:33:14.564Z,11.12
2019-02-22T09:36:18.500Z,11.23
2019-02-22T09:39:21.778Z,11.36
2019-02-22T09:42:24.723Z,11.32
2019-02-22T09:45:27.988Z,11.28
2019-02-22T09:48:31.285Z,11.49
2019-02-22T09:51:34.219Z,11.49
2019-02-22T09:54:37.179Z,11.43
2019-02-22T09:57:40.249Z,11.30
2019-02-22T10:00:43.565Z,11.37
2019-02-22T10:03:47.182Z,11.47
2019-02-22T10:06:50.163Z,11.70
2019-02-22T10:09:53.481Z,11.75
2019-02-22T10:12:56.421Z,11.81
2019-02-22T10:16:00.392Z,11.86
2019-02-22T10:19:04.349Z,11.75
2019-02-22T10:22:07.616Z,11.64
2019-02-22T10:25:12.205Z,11.67
2019-02-22T10:28:18.055Z,11.83
2019-02-22T10:31:20.450Z,11.87
2019-02-22T10:34:23.425Z,12.20
2019-02-22T10:37:26.390Z,12.28
2019-02-22T10:40:29.964Z,12.17
2019-02-22T10:43:33.792Z,11.98
2019-02-22T10:46:36.822Z,11.90
2019-02-22T10:49:40.343Z,11.72
2019-02-22T10:52:43.633Z,11.61
2019-02-22T10:55:46.585Z,11.60
2019-02-22T10:58:49.845Z,11.58
2019-02-22T11:01:52.876Z,11.67
2019-02-22T11:04:56.083Z,11.68
2019-02-22T11:07:59.325Z,11.60
2019-02-22T11:11:02.791Z,11.67
2019-02-22T11:14:07.622Z,11.77
2019-02-22T11:17:10.610Z,11.76
2019-02-22T11:20:14.237Z,11.70
2019-02-22T11:23:17.907Z,11.68
2019-02-22T11:26:20.987Z,11.68
2019-02-22T11:29:24.236Z,11.63
2019-02-22T11:32:31.014Z,11.69
2019-02-22T11:35:33.960Z,11.61
2019-02-22T11:38:37.495Z,11.63
2019-02-22T11:41:40.735Z,11.66
2019-02-22T11:44:43.691Z,11.77
2019-02-22T11:47:46.928Z,12.29
2019-02-22T11:50:50.135Z,12.45
2019-02-22T11:53:53.404Z,12.20
2019-02-22T11:56:56.605Z,11.99
2019-02-22T11:59:59.562Z,11.98
2019-02-22T12:03:15.870Z,12.06
2019-02-22T12:06:08.059Z,13.73
2019-02-22T12:09:11.401Z,17.90
2019-02-22T12:12:14.845Z,14.70
2019-02-22T12:15:18.212Z,13.59
2019-02-22T12:18:21.538Z,12.82
2019-02-22T12:21:25.423Z,12.51
2019-02-22T12:24:28.680Z,12.35
2019-02-22T12:27:31.628Z,12.26
2019-02-22T12:30:34.616Z,12.22
2019-02-22T12:33:37.680Z,12.69
2019-02-22T12:36:40.917Z,13.21
2019-02-22T12:39:44.511Z,13.47
2019-02-22T12:42:47.454Z,13.28
2019-02-22T12:45:50.414Z,13.23
2019-02-22T12:48:53.352Z,13.24
2019-02-22T12:51:56.893Z,12.87
2019-02-22T12:54:59.852Z,12.53
2019-02-22T12:58:03.072Z,12.40
2019-02-22T13:01:06.043Z,12.38
2019-02-22T13:04:09.028Z,12.34
2019-02-22T13:07:12.081Z,12.30
2019-02-22T13:10:16.183Z,12.23
2019-02-22T13:13:19.141Z,12.32
2019-02-22T13:16:22.100Z,12.29
2019-02-22T13:19:25.415Z,12.35
2019-02-22T13:22:28.715Z,12.35
2019-02-22T13:25:31.967Z,12.44
2019-02-22T13:28:34.900Z,12.87
2019-02-22T13:31:37.878Z,12.64
2019-02-22T13:34:41.898Z,12.53
2019-02-22T13:37:44.956Z,12.47
2019-02-22T13:40:49.691Z,12.44
2019-02-22T13:43:52.827Z,12.45
2019-02-22T13:46:56.075Z,12.40
2019-02-22T13:49:59.543Z,12.43
2019-02-22T13:53:02.505Z,12.48
2019-02-22T13:56:05.811Z,12.52
2019-02-22T13:59:09.031Z,12.61
2019-02-22T14:02:12.253Z,12.41
2019-02-22T14:05:15.640Z,12.28
2019-02-22T14:08:18.878Z,12.26
2019-02-22T14:11:22.137Z,12.17
2019-02-22T14:14:25.769Z,12.09
2019-02-22T14:17:28.723Z,12.10
2019-02-22T14:20:31.949Z,12.10
2019-02-22T14:23:35.561Z,12.08
2019-02-22T14:26:38.509Z,12.13
2019-02-22T14:29:42.185Z,12.18
2019-02-22T14:32:45.326Z,12.16
2019-02-22T14:35:48.891Z,12.18
2019-02-22T14:38:51.856Z,12.27
2019-02-22T14:41:54.865Z,12.27
2019-02-22T14:44:58.128Z,12.26
2019-02-22T14:48:01.911Z,12.21
2019-02-22T14:51:05.290Z,12.28
2019-02-22T14:54:08.258Z,12.34
2019-02-22T14:57:13.181Z,12.37
2019-02-22T15:00:18.066Z,12.27
2019-02-22T15:03:21.127Z,12.20
2019-02-22T15:06:24.734Z,12.28
2019-02-22T15:09:27.744Z,12.19
2019-02-22T15:12:31.039Z,12.11
2019-02-22T15:16:00.960Z,12.07
2019-02-22T15:19:11.236Z,12.10
2019-02-22T15:22:14.759Z,12.01
2019-02-22T15:25:18.028Z,12.04
2019-02-22T15:28:21.009Z,12.03
2019-02-22T15:31:24.073Z,12.05
2019-02-22T15:34:27.047Z,12.05
2019-02-22T15:37:30.033Z,11.96
2019-02-22T15:40:33.051Z,12.02
2019-02-22T15:43:36.107Z,11.98
2019-02-22T15:46:39.642Z,11.92
2019-02-22T15:49:43.135Z,11.89
2019-02-22T15:52:47.465Z,11.92
2019-02-22T15:55:51.165Z,11.87
2019-02-22T15:58:54.366Z,11.78
2019-02-22T16:01:57.598Z,11.88
2019-02-22T16:05:05.049Z,11.96
2019-02-22T16:08:09.020Z,11.82
2019-02-22T16:11:12.323Z,11.84
2019-02-22T16:14:15.590Z,11.84
2019-02-22T16:17:18.817Z,11.78
2019-02-22T16:20:21.781Z,11.82
2019-02-22T16:23:24.730Z,11.79
2019-02-22T16:26:30.005Z,11.83
2019-02-22T16:29:33.638Z,11.87
2019-02-22T16:32:36.887Z,11.88
2019-02-22T16:35:40.144Z,11.67
2019-02-22T16:38:43.117Z,11.78
2019-02-22T16:41:46.094Z,11.80
2019-02-22T16:44:49.095Z,11.78
2019-02-22T16:47:52.364Z,11.71
2019-02-22T16:50:55.443Z,11.66
2019-02-22T16:53:58.679Z,11.63
2019-02-22T16:57:02.025Z,11.71
2019-02-22T17:00:05.896Z,11.68
2019-02-22T17:03:11.040Z,11.66
2019-02-22T17:06:14.682Z,11.65
2019-02-22T17:09:18.056Z,11.68
2019-02-22T17:12:21.135Z,11.74
2019-02-22T17:15:24.420Z,11.75
2019-02-22T17:18:27.383Z,11.77
2019-02-22T17:21:30.873Z,11.70
2019-02-22T17:24:34.145Z,11.69
2019-02-22T17:27:37.104Z,11.74
2019-02-22T17:30:40.344Z,11.64
2019-02-22T17:33:43.688Z,11.70
2019-02-22T17:36:46.915Z,11.57
2019-02-22T17:39:50.207Z,11.56
2019-02-22T17:42:53.137Z,11.57
2019-02-22T17:45:56.629Z,11.55
2019-02-22T17:49:00.385Z,11.47
2019-02-22T17:52:03.874Z,11.44
2019-02-22T17:55:07.713Z,11.39
2019-02-22T17:58:11.525Z,11.42
2019-02-22T18:01:15.042Z,11.27
2019-02-22T18:04:18.284Z,11.25
2019-02-22T18:07:21.246Z,11.23
2019-02-22T18:10:24.513Z,11.24
2019-02-22T18:13:28.190Z,11.19
2019-02-22T18:16:31.144Z,11.14
2019-02-22T18:19:34.103Z,11.10
2019-02-22T18:22:37.436Z,10.83
2019-02-22T18:25:40.401Z,10.74
2019-02-22T18:28:44.081Z,10.69
2019-02-22T18:31:47.657Z,10.58
2019-02-22T18:34:50.585Z,10.76
2019-02-22T18:37:54.159Z,10.67
2019-02-22T18:40:57.403Z,10.45
2019-02-22T18:44:00.602Z,10.35
2019-02-22T18:47:03.585Z,10.27
2019-02-22T18:50:07.530Z,10.40
2019-02-22T18:53:10.845Z,10.19
2019-02-22T18:56:14.122Z,10.11
2019-02-22T18:59:17.065Z,9.98
2019-02-22T19:02:20.325Z,10.06
2019-02-22T19:05:23.691Z,9.78
2019-02-22T19:08:32.513Z,9.92
2019-02-22T19:11:31.883Z,9.90
2019-02-22T19:14:35.145Z,9.59
2019-02-22T19:17:38.130Z,9.68
2019-02-22T19:20:41.339Z,9.76
2019-02-22T19:23:44.466Z,9.66
2019-02-22T19:26:47.421Z,9.61
2019-02-22T19:29:50.608Z,9.72
2019-02-22T19:32:53.679Z,9.88
2019-02-22T19:35:56.888Z,9.72
2019-02-22T19:39:00.439Z,9.71
2019-02-22T19:42:03.992Z,9.60
2019-02-22T19:45:07.793Z,9.74
2019-02-22T19:48:11.081Z,9.71
2019-02-22T19:51:14.308Z,9.86
2019-02-22T19:54:17.563Z,9.78
2019-02-22T19:57:20.548Z,9.73
2019-02-22T20:00:23.735Z,9.63
2019-02-22T20:03:27.585Z,9.71
2019-02-22T20:06:30.915Z,9.48
2019-02-22T20:09:34.433Z,9.56
2019-02-22T20:12:37.511Z,9.55
2019-02-22T20:15:40.852Z,9.62
2019-02-22T20:18:44.095Z,9.38
2019-02-22T20:21:47.757Z,9.47
2019-02-22T20:24:51.034Z,9.64
2019-02-22T20:27:53.989Z,9.33
2019-02-22T20:30:57.215Z,9.11
2019-02-22T20:34:00.405Z,8.92
2019-02-22T20:37:03.872Z,9.20
2019-02-22T20:40:07.608Z,9.17
2019-02-22T20:43:10.966Z,9.40
2019-02-22T20:46:14.317Z,9.24
2019-02-22T20:49:17.821Z,8.77
2019-02-22T20:52:20.905Z,8.74
2019-02-22T20:55:25.434Z,9.03
2019-02-22T20:58:28.928Z,9.06
2019-02-22T21:01:31.886Z,8.64
2019-02-22T21:04:35.174Z,8.52
2019-02-22T21:07:38.787Z,8.18
2019-02-22T21:10:41.761Z,8.18
2019-02-22T21:13:45.674Z,8.23
2019-02-22T21:16:48.622Z,8.26
2019-02-22T21:19:52.267Z,8.05
2019-02-22T21:22:55.548Z,8.27
2019-02-22T21:25:58.531Z,8.24
2019-02-22T21:29:01.838Z,8.25
2019-02-22T21:32:04.801Z,8.25
2019-02-22T21:35:08.360Z,8.19
2019-02-22T21:38:12.225Z,8.41
2019-02-22T21:41:16.444Z,8.46
2019-02-22T21:44:20.948Z,8.00
2019-02-22T21:47:24.070Z,8.54
2019-02-22T21:50:27.073Z,8.43
2019-02-22T21:53:30.669Z,8.14
2019-02-22T21:56:33.887Z,7.62
2019-02-22T21:59:37.243Z,7.82
2019-02-22T22:02:40.815Z,8.07
2019-02-22T22:05:44.586Z,8.12
2019-02-22T22:08:48.129Z,8.13
2019-02-22T22:11:51.735Z,7.76
2019-02-22T22:14:54.764Z,7.59
2019-02-22T22:17:58.259Z,7.62
2019-02-22T22:21:02.217Z,7.52
2019-02-22T22:24:05.171Z,7.73
2019-02-22T22:27:08.162Z,7.71
2019-02-22T22:30:11.489Z,7.65
2019-02-22T22:33:14.686Z,7.55
2019-02-22T22:36:17.930Z,7.75
2019-02-22T22:39:20.892Z,7.70
2019-02-22T22:42:23.839Z,7.84
2019-02-22T22:45:27.897Z,7.75
2019-02-22T22:48:31.553Z,7.91
2019-02-22T22:51:34.849Z,7.72
2019-02-22T22:54:38.143Z,7.11
2019-02-22T22:57:41.381Z,7.16
2019-02-22T23:01:07.787Z,7.36
2019-02-22T23:04:11.702Z,7.43
2019-02-22T23:07:15.073Z,7.68
2019-02-22T23:10:18.226Z,7.61
2019-02-22T23:13:21.290Z,7.83
2019-02-22T23:16:24.681Z,7.87
2019-02-22T23:19:28.252Z,7.44
2019-02-22T23:22:31.538Z,7.90
2019-02-22T23:25:34.474Z,7.67
2019-02-22T23:28:37.556Z,7.67
2019-02-22T23:31:40.616Z,7.44
2019-02-22T23:34:43.839Z,7.25
2019-02-22T23:37:48.078Z,7.20
2019-02-22T23:40:51.334Z,7.66
2019-02-22T23:43:54.541Z,7.08
2019-02-22T23:46:57.517Z,6.81
2019-02-22T23:50:00.722Z,7.12
2019-02-22T23:53:03.681Z,7.34
2019-02-22T23:56:06.951Z,7.58
2019-02-22T23:59:10.273Z,7.02
